Time;durP1;ratioP1;P1;durP2;ratioP2;P2;SDS_P1;SDS_P2;PMS_P1;PMS_P2;Temp;Humidity;BMP_temperature;BMP_pressure;BME280_temperature;BME280_humidity;BME280_pressure;Samples;Min_cycle;Max_cycle;Signal;HPM_P1;HPM_P2
2023/09/16 00:01:35;;;;;;;27.13;21.30;;;;;;;15.65;100.00;101453.84;5076574;28;20039;-65
2023/09/16 00:04:01;;;;;;;23.88;20.58;;;;;;;15.61;100.00;101452.28;5087033;28;20020;-62
2023/09/16 00:06:27;;;;;;;28.00;21.08;;;;;;;15.60;100.00;101450.56;5086868;28;20039;-64
2023/09/16 00:08:52;;;;;;;26.52;21.88;;;;;;;15.56;100.00;101446.28;5085630;28;20032;-56
2023/09/16 00:11:17;;;;;;;31.77;23.75;;;;;;;15.53;100.00;101451.75;5076997;28;20050;-65
2023/09/16 00:13:43;;;;;;;30.30;22.50;;;;;;;15.53;100.00;101457.06;5086381;28;20024;-65
2023/09/16 00:16:09;;;;;;;29.05;20.42;;;;;;;15.50;100.00;101447.44;5086067;28;20103;-63
2023/09/16 00:18:35;;;;;;;29.77;21.23;;;;;;;15.51;100.00;101449.16;5086245;28;20024;-66
2023/09/16 00:21:00;;;;;;;25.05;20.00;;;;;;;15.51;100.00;101438.53;5082188;28;20024;-60
2023/09/16 00:23:25;;;;;;;32.55;22.08;;;;;;;15.49;100.00;101444.84;5086141;28;20028;-63
2023/09/16 00:25:52;;;;;;;26.35;20.65;;;;;;;15.47;100.00;101452.03;5067676;28;20378;-67
2023/09/16 00:28:17;;;;;;;28.98;20.25;;;;;;;15.45;100.00;101448.59;5087450;28;20110;-61
2023/09/16 00:30:48;;;;;;;28.63;22.35;;;;;;;15.39;100.00;101439.94;5086768;28;20471;-67
2023/09/16 00:33:13;;;;;;;28.88;22.30;;;;;;;15.38;100.00;101443.53;5085324;28;20040;-63
2023/09/16 00:35:39;;;;;;;30.63;21.83;;;;;;;15.33;100.00;101445.56;5086654;28;20368;-65
2023/09/16 00:38:04;;;;;;;28.10;20.63;;;;;;;15.34;100.00;101439.31;5085174;28;20024;-67
2023/09/16 00:40:30;;;;;;;27.48;21.05;;;;;;;15.35;100.00;101448.13;5085924;28;20115;-58
2023/09/16 00:42:55;;;;;;;27.58;19.85;;;;;;;15.35;100.00;101438.38;5086566;28;20036;-67
2023/09/16 00:45:20;;;;;;;28.25;22.95;;;;;;;15.28;100.00;101442.22;5086485;28;20055;-65
2023/09/16 00:47:46;;;;;;;27.65;20.60;;;;;;;15.27;100.00;101454.63;5085786;28;20024;-68
2023/09/16 00:50:17;;;;;;;31.63;22.17;;;;;;;15.28;100.00;101450.19;5086985;28;20567;-67
2023/09/16 00:52:54;;;;;;;28.13;21.75;;;;;;;15.29;100.00;101444.81;5086173;28;20051;-66
2023/09/16 00:55:20;;;;;;;26.20;22.15;;;;;;;15.30;100.00;101445.69;5087327;28;20016;-62
2023/09/16 00:57:48;;;;;;;26.15;22.08;;;;;;;15.34;100.00;101455.22;5065168;28;20066;-63
2023/09/16 01:00:16;;;;;;;26.88;21.70;;;;;;;15.39;100.00;101442.59;5065796;28;20085;-65
2023/09/16 01:02:43;;;;;;;30.73;21.75;;;;;;;15.45;100.00;101445.94;5064922;28;20028;-66
2023/09/16 01:05:14;;;;;;;29.85;21.50;;;;;;;15.50;100.00;101441.28;5065056;28;20065;-66
2023/09/16 01:07:41;;;;;;;23.88;19.75;;;;;;;15.57;100.00;101445.38;5064894;28;20490;-68
2023/09/16 01:10:07;;;;;;;27.85;19.98;;;;;;;15.65;100.00;101440.56;5066536;28;20031;-62
2023/09/16 01:12:33;;;;;;;28.83;21.40;;;;;;;15.70;100.00;101439.47;5065340;28;20049;-62
2023/09/16 01:14:58;;;;;;;28.80;21.98;;;;;;;15.82;100.00;101440.72;5065297;28;20165;-66
2023/09/16 01:17:25;;;;;;;30.23;19.73;;;;;;;15.83;100.00;101439.81;5081414;28;20028;-64
2023/09/16 01:20:11;;;;;;;33.40;20.95;;;;;;;15.83;100.00;101435.31;5067603;28;20355;-65
2023/09/16 01:22:39;;;;;;;27.83;20.45;;;;;;;15.86;100.00;101432.53;5085311;28;20197;-66
2023/09/16 01:25:08;;;;;;;25.92;20.23;;;;;;;15.94;100.00;101426.88;5086845;28;20074;-67
2023/09/16 01:27:34;;;;;;;29.30;20.67;;;;;;;15.96;100.00;101422.38;5085149;28;20024;-62
2023/09/16 01:29:59;;;;;;;26.90;20.90;;;;;;;15.90;100.00;101420.81;5086448;28;20077;-68
2023/09/16 01:32:37;;;;;;;24.95;19.38;;;;;;;15.90;100.00;101419.97;5085690;28;20088;-65
2023/09/16 01:35:06;;;;;;;29.40;21.87;;;;;;;15.87;100.00;101428.09;5086126;28;20115;-62
2023/09/16 01:37:31;;;;;;;;;;;;;;;15.86;100.00;101421.91;5068398;28;20482;-65
2023/09/16 01:39:58;;;;;;;25.87;19.47;;;;;;;15.77;100.00;101428.50;5068597;28;19923;-62
2023/09/16 01:42:24;;;;;;;29.88;21.10;;;;;;;15.70;100.00;101420.88;5084881;28;20597;-66
2023/09/16 01:44:54;;;;;;;28.05;20.08;;;;;;;15.65;100.00;101421.97;5084209;28;20504;-63
2023/09/16 01:47:19;;;;;;;26.73;20.95;;;;;;;15.61;100.00;101422.19;5086788;28;20066;-66
2023/09/16 01:49:44;;;;;;;28.17;21.40;;;;;;;15.57;100.00;101416.16;5086071;28;20024;-64
2023/09/16 01:52:10;;;;;;;25.77;20.65;;;;;;;15.61;100.00;101423.06;5078195;28;20040;-65
2023/09/16 01:54:36;;;;;;;27.27;19.80;;;;;;;15.54;100.00;101424.28;5065717;28;20035;-66
2023/09/16 01:57:01;;;;;;;28.40;20.13;;;;;;;15.48;100.00;101419.22;5064987;28;20020;-57
2023/09/16 01:59:27;;;;;;;26.10;19.67;;;;;;;15.37;100.00;101425.91;5067987;28;20620;-65
2023/09/16 02:01:52;;;;;;;31.35;20.42;;;;;;;15.31;100.00;101426.16;5069849;28;20063;-58
2023/09/16 02:04:17;;;;;;;27.20;20.95;;;;;;;15.26;100.00;101423.72;5074018;28;20054;-66
2023/09/16 02:06:46;;;;;;;26.42;21.23;;;;;;;15.18;100.00;101424.97;5089429;28;20231;-66
2023/09/16 02:09:12;;;;;;;34.83;22.58;;;;;;;15.14;100.00;101430.41;5088000;28;20025;-68
2023/09/16 02:11:38;;;;;;;30.23;22.13;;;;;;;15.12;100.00;101420.81;5088319;28;20145;-63
2023/09/16 02:14:04;;;;;;;30.63;22.85;;;;;;;15.09;100.00;101421.81;5089788;28;20024;-59
2023/09/16 02:16:30;;;;;;;30.35;21.95;;;;;;;15.06;100.00;101421.94;5088525;28;20074;-66
2023/09/16 02:18:55;;;;;;;31.05;22.27;;;;;;;15.05;100.00;101424.66;5089905;28;20024;-64
2023/09/16 02:21:22;;;;;;;33.72;22.58;;;;;;;15.01;100.00;101423.94;5089573;28;20506;-65
2023/09/16 02:23:47;;;;;;;27.90;21.13;;;;;;;15.00;100.00;101430.16;5089164;28;20020;-61
2023/09/16 02:26:13;;;;;;;33.33;22.55;;;;;;;14.94;100.00;101422.47;5088931;28;20462;-61
2023/09/16 02:28:40;;;;;;;31.95;24.40;;;;;;;14.92;100.00;101427.84;5084180;28;20074;-67
2023/09/16 02:31:06;;;;;;;31.10;22.17;;;;;;;14.88;100.00;101428.91;5069282;28;20025;-64
2023/09/16 02:33:32;;;;;;;32.88;23.60;;;;;;;14.86;100.00;101431.63;5067665;28;20040;-54
2023/09/16 02:35:57;;;;;;;29.38;21.83;;;;;;;14.79;100.00;101432.81;5068760;28;20379;-66
2023/09/16 02:38:23;;;;;;;32.15;23.17;;;;;;;14.74;100.00;101432.09;5068248;28;20024;-63
2023/09/16 02:40:48;;;;;;;29.02;22.40;;;;;;;14.70;100.00;101427.84;5068749;28;20021;-66
2023/09/16 02:43:13;;;;;;;29.27;22.45;;;;;;;14.65;100.00;101428.91;5068749;28;20037;-64
2023/09/16 02:45:42;;;;;;;28.73;22.55;;;;;;;14.65;100.00;101425.41;5067537;28;20025;-61
2023/09/16 02:48:08;;;;;;;27.85;21.35;;;;;;;14.68;100.00;101421.75;5068675;28;20506;-66
2023/09/16 02:50:39;;;;;;;29.60;23.30;;;;;;;14.66;100.00;101416.53;5068696;28;20025;-62
2023/09/16 02:53:05;;;;;;;28.17;21.65;;;;;;;14.63;100.00;101417.50;5067282;28;20041;-64
2023/09/16 02:55:32;;;;;;;28.45;21.23;;;;;;;14.64;100.00;101419.25;5068420;28;20497;-57
2023/09/16 02:58:00;;;;;;;27.75;21.08;;;;;;;14.63;100.00;101412.19;5067664;28;20059;-63
2023/09/16 03:00:26;;;;;;;28.90;22.08;;;;;;;14.63;100.00;101421.97;5068418;28;20020;-68
2023/09/16 03:02:51;;;;;;;33.15;23.38;;;;;;;14.60;100.00;101414.97;5068965;28;20032;-62
2023/09/16 03:05:17;;;;;;;30.73;22.50;;;;;;;14.56;100.00;101424.00;5067577;28;20032;-67
2023/09/16 03:07:43;;;;;;;29.63;22.63;;;;;;;14.51;100.00;101415.38;5067414;28;20435;-66
2023/09/16 03:10:09;;;;;;;28.98;22.90;;;;;;;14.49;100.00;101417.22;5049207;28;20035;-61
2023/09/16 03:12:34;;;;;;;31.67;23.08;;;;;;;14.49;100.00;101409.25;5070391;28;20506;-66
2023/09/16 03:14:59;;;;;;;27.70;22.35;;;;;;;14.47;100.00;101408.44;5088418;28;20031;-66
2023/09/16 03:17:25;;;;;;;29.65;21.42;;;;;;;14.48;100.00;101416.34;5087293;28;20028;-64
2023/09/16 03:19:50;;;;;;;27.38;21.33;;;;;;;14.45;100.00;101399.72;5087854;28;20028;-66
2023/09/16 03:22:15;;;;;;;29.88;22.20;;;;;;;14.42;100.00;101400.69;5087476;28;20020;-63
2023/09/16 03:24:43;;;;;;;28.65;21.45;;;;;;;14.43;100.00;101413.03;5082469;28;20036;-66
2023/09/16 03:27:08;;;;;;;35.65;22.90;;;;;;;14.42;100.00;101399.84;5068212;28;20315;-66
2023/09/16 03:29:33;;;;;;;31.75;22.83;;;;;;;14.40;100.00;101395.47;5066730;28;20052;-56
2023/09/16 03:31:59;;;;;;;27.20;21.13;;;;;;;14.44;100.00;101392.66;5067861;28;20020;-66
2023/09/16 03:34:24;;;;;;;32.10;22.02;;;;;;;14.43;100.00;101389.19;5067586;28;20438;-67
2023/09/16 03:36:49;;;;;;;31.27;22.13;;;;;;;14.45;100.00;101392.59;5072797;28;20075;-64
2023/09/16 03:39:15;;;;;;;27.13;19.73;;;;;;;14.44;100.00;101390.03;5088240;28;20099;-67
2023/09/16 03:41:40;;;;;;;31.42;21.30;;;;;;;14.43;100.00;101386.53;5087087;28;20043;-63
2023/09/16 03:44:06;;;;;;;29.63;20.33;;;;;;;14.41;100.00;101391.03;5088653;28;20023;-66
2023/09/16 03:46:32;;;;;;;26.35;20.40;;;;;;;14.42;100.00;101394.53;5088658;28;20027;-68
2023/09/16 03:48:57;;;;;;;30.30;21.10;;;;;;;14.36;100.00;101396.50;5062117;28;20028;-61
2023/09/16 03:51:23;;;;;;;26.45;21.13;;;;;;;14.33;100.00;101383.38;5067954;28;20020;-61
2023/09/16 03:53:48;;;;;;;30.35;21.05;;;;;;;14.33;100.00;101385.19;5065255;28;20027;-67
2023/09/16 03:56:14;;;;;;;30.75;21.20;;;;;;;14.35;100.00;101378.88;5067262;28;20382;-62
2023/09/16 03:58:39;;;;;;;33.00;23.27;;;;;;;14.30;100.00;101386.16;5087396;28;20381;-67
2023/09/16 04:01:04;;;;;;;30.48;21.48;;;;;;;14.25;100.00;101386.38;5072630;28;20077;-66
2023/09/16 04:03:30;;;;;;;30.95;22.40;;;;;;;14.19;100.00;101388.38;5065400;28;20082;-62
2023/09/16 04:05:58;;;;;;;29.83;21.23;;;;;;;14.17;100.00;101375.19;5077750;28;20351;-64
2023/09/16 04:08:26;;;;;;;31.98;21.88;;;;;;;14.15;100.00;101382.38;5086475;28;20043;-59
2023/09/16 04:10:52;;;;;;;29.98;21.52;;;;;;;14.12;100.00;101380.69;5086722;28;20027;-67
2023/09/16 04:13:18;;;;;;;32.00;22.50;;;;;;;14.15;100.00;101388.50;5087676;28;20052;-61
2023/09/16 04:15:43;;;;;;;32.38;23.00;;;;;;;14.12;100.00;101380.69;5087293;28;20020;-66
2023/09/16 04:18:09;;;;;;;32.17;22.90;;;;;;;14.11;100.00;101381.59;5053030;28;20029;-66
2023/09/16 04:20:34;;;;;;;30.05;22.23;;;;;;;14.10;100.00;101381.66;5067072;28;20021;-63
2023/09/16 04:22:59;;;;;;;32.08;23.35;;;;;;;14.07;100.00;101390.63;5065735;28;20467;-66
2023/09/16 04:25:25;;;;;;;32.72;23.40;;;;;;;14.01;100.00;101378.47;5067245;28;20021;-67
2023/09/16 04:27:50;;;;;;;29.45;22.63;;;;;;;14.01;100.00;101383.78;5067139;28;20029;-59
2023/09/16 04:30:15;;;;;;;33.38;23.63;;;;;;;13.98;100.00;101383.03;5066128;28;20025;-65
2023/09/16 04:32:41;;;;;;;30.83;23.48;;;;;;;13.95;100.00;101377.84;5066478;28;20112;-64
2023/09/16 04:35:07;;;;;;;27.98;21.83;;;;;;;13.94;100.00;101379.63;5066317;28;20501;-67
2023/09/16 04:37:32;;;;;;;31.35;23.15;;;;;;;13.94;100.00;101378.78;5065938;28;20075;-58
2023/09/16 04:39:57;;;;;;;30.85;23.90;;;;;;;13.97;100.00;101376.00;5066611;28;20016;-64
2023/09/16 04:42:29;;;;;;;30.40;22.17;;;;;;;13.99;100.00;101371.50;5065059;28;20039;-64
2023/09/16 04:44:54;;;;;;;29.92;22.83;;;;;;;13.96;100.00;101377.78;5065906;28;20023;-58
2023/09/16 04:47:21;;;;;;;29.80;23.48;;;;;;;13.94;100.00;101373.47;5066831;28;20266;-66
2023/09/16 04:49:48;;;;;;;29.23;21.17;;;;;;;13.90;100.00;101368.28;5066566;28;20024;-63
2023/09/16 04:52:13;;;;;;;34.60;23.27;;;;;;;13.92;100.00;101370.88;5065752;28;20486;-68
2023/09/16 04:54:38;;;;;;;33.40;23.60;;;;;;;13.89;100.00;101371.00;5083927;28;20024;-67
2023/09/16 04:57:04;;;;;;;32.80;23.80;;;;;;;13.86;100.00;101371.13;5086120;28;20024;-62
2023/09/16 04:59:33;;;;;;;34.55;22.73;;;;;;;13.84;100.00;101370.31;5086293;28;20024;-67
2023/09/16 05:01:59;;;;;;;28.60;21.25;;;;;;;13.85;100.00;101366.75;5070662;28;20052;-65
2023/09/16 05:04:24;;;;;;;31.20;21.95;;;;;;;13.85;100.00;101364.94;5065818;28;20517;-64
2023/09/16 05:06:49;;;;;;;32.67;21.45;;;;;;;13.88;100.00;101369.28;5064721;28;20425;-64
2023/09/16 05:09:15;;;;;;;33.20;22.60;;;;;;;13.83;100.00;101366.81;5065403;28;20024;-67
2023/09/16 05:11:40;;;;;;;28.55;22.70;;;;;;;13.82;100.00;101372.19;5065678;28;20036;-60
2023/09/16 05:14:05;;;;;;;37.15;22.83;;;;;;;13.80;100.00;101374.88;5066311;28;20103;-61
2023/09/16 05:16:31;;;;;;;28.48;20.88;;;;;;;13.82;100.00;101366.88;5065788;28;20016;-67
2023/09/16 05:18:56;;;;;;;29.23;22.05;;;;;;;13.77;100.00;101365.28;5066521;28;20032;-67
2023/09/16 05:21:21;;;;;;;30.52;21.65;;;;;;;13.76;100.00;101365.34;5085126;28;20047;-59
2023/09/16 05:23:47;;;;;;;30.10;22.90;;;;;;;13.74;100.00;101368.03;5085662;28;20060;-68
2023/09/16 05:26:14;;;;;;;30.52;21.88;;;;;;;13.82;100.00;101377.47;5066713;28;20328;-67
2023/09/16 05:28:39;;;;;;;29.83;21.85;;;;;;;13.80;100.00;101372.22;5085968;28;20103;-67
2023/09/16 05:31:04;;;;;;;27.45;21.45;;;;;;;13.84;100.00;101367.66;5067591;28;20482;-67
2023/09/16 05:33:30;;;;;;;29.50;21.90;;;;;;;13.88;100.00;101375.44;5084322;28;20039;-68
2023/09/16 05:35:55;;;;;;;28.02;20.95;;;;;;;13.94;100.00;101368.19;5090035;28;20026;-64
2023/09/16 05:38:21;;;;;;;28.15;21.50;;;;;;;13.93;100.00;101377.91;5089083;28;20119;-67
2023/09/16 05:40:46;;;;;;;29.67;20.70;;;;;;;13.98;100.00;101383.03;5090175;28;20027;-64
2023/09/16 05:43:11;;;;;;;31.80;21.05;;;;;;;13.95;100.00;101377.84;5090238;28;20055;-66
2023/09/16 05:45:37;;;;;;;35.85;22.58;;;;;;;13.89;100.00;101376.31;5088742;28;20085;-63
2023/09/16 05:48:04;;;;;;;27.10;20.73;;;;;;;13.98;100.00;101388.31;5089577;28;20106;-64
2023/09/16 05:50:30;;;;;;;28.85;21.98;;;;;;;13.97;100.00;101390.09;5088262;28;20039;-66
2023/09/16 05:52:55;;;;;;;30.60;21.52;;;;;;;13.96;100.00;101390.16;5070976;28;20028;-67
2023/09/16 05:55:20;;;;;;;32.95;22.50;;;;;;;14.04;100.00;101390.72;5089969;28;20032;-67
2023/09/16 05:57:46;;;;;;;26.27;18.50;;;;;;;14.10;100.00;101393.16;5087317;28;20024;-67
2023/09/16 06:00:11;;;;;;;27.48;20.15;;;;;;;14.19;100.00;101388.38;5089829;28;20589;-68
2023/09/16 06:02:39;;;;;;;31.25;20.42;;;;;;;14.19;100.00;101386.59;5088034;28;20382;-65
2023/09/16 06:05:06;;;;;;;27.60;19.88;;;;;;;14.29;100.00;101389.72;5089090;28;20458;-69
2023/09/16 06:07:31;;;;;;;26.75;18.98;;;;;;;14.35;100.00;101391.25;5088687;28;20520;-66
2023/09/16 06:09:57;;;;;;;26.65;19.58;;;;;;;14.36;100.00;101391.19;5088608;28;20028;-65
2023/09/16 06:12:22;;;;;;;22.83;18.98;;;;;;;14.43;100.00;101397.13;5088874;28;20490;-60
2023/09/16 06:14:47;;;;;;;29.27;20.65;;;;;;;14.48;100.00;101402.25;5089595;28;20111;-67
2023/09/16 06:17:13;;;;;;;21.23;18.02;;;;;;;14.58;100.00;101413.31;5076201;28;20024;-66
2023/09/16 06:19:39;;;;;;;24.25;17.27;;;;;;;14.69;100.00;101413.72;5068759;28;20024;-63
2023/09/16 06:22:04;;;;;;;21.85;16.70;;;;;;;14.79;100.00;101414.25;5067619;28;20017;-65
2023/09/16 06:24:30;;;;;;;24.30;17.60;;;;;;;14.86;100.00;101418.34;5069811;28;20034;-66
2023/09/16 06:26:55;;;;;;;25.08;18.48;;;;;;;14.88;100.00;101420.94;5068359;28;20099;-62
2023/09/16 06:29:20;;;;;;;23.58;17.98;;;;;;;14.96;100.00;101417.97;5082253;28;20059;-69
2023/09/16 06:31:46;;;;;;;24.23;16.05;;;;;;;15.12;100.00;101426.13;5070878;28;20108;-66
2023/09/16 06:34:11;;;;;;;18.52;15.52;;;;;;;15.19;100.00;101422.25;5087808;28;20031;-67
2023/09/16 06:36:40;;;;;;;24.85;17.75;;;;;;;15.18;100.00;101423.19;5052540;28;20016;-67
2023/09/16 06:39:07;;;;;;;;;;;;;;;15.21;100.00;101419.53;5070957;28;20024;-67
2023/09/16 06:41:33;;;;;;;20.80;15.90;;;;;;;15.25;100.00;101421.13;5088568;28;19999;-69
2023/09/16 06:43:58;;;;;;;20.15;15.85;;;;;;;15.38;100.00;101416.97;5088236;28;20423;-66
2023/09/16 06:46:24;;;;;;;18.33;14.43;;;;;;;15.49;100.00;101418.28;5087768;28;20371;-69
2023/09/16 06:48:49;;;;;;;22.77;15.00;;;;;;;15.62;100.00;101413.31;5089098;28;20051;-67
2023/09/16 06:51:14;;;;;;;18.05;14.30;;;;;;;15.70;100.00;101420.88;5087821;28;20059;-62
2023/09/16 06:53:40;;;;;;;20.40;15.38;;;;;;;15.73;100.00;101418.09;5087921;28;20119;-66
2023/09/16 06:56:05;;;;;;;24.80;14.77;;;;;;;15.75;100.00;101409.13;5088877;28;20028;-68
2023/09/16 06:58:30;;;;;;;17.17;14.13;;;;;;;15.83;100.00;101411.41;5087450;28;20419;-65
2023/09/16 07:00:56;;;;;;;22.90;15.68;;;;;;;15.94;100.00;101413.56;5089378;28;20073;-61
2023/09/16 07:03:21;;;;;;;19.15;15.07;;;;;;;15.96;100.00;101417.06;5089132;28;20138;-63
2023/09/16 07:05:48;;;;;;;19.50;14.98;;;;;;;16.03;100.00;101412.31;5088702;28;20020;-67
2023/09/16 07:08:17;;;;;;;17.13;14.23;;;;;;;16.15;100.00;101417.03;5088836;28;20288;-66
2023/09/16 07:10:43;;;;;;;19.75;15.63;;;;;;;16.15;100.00;101419.69;5088798;28;20036;-66
2023/09/16 07:13:08;;;;;;;17.83;15.50;;;;;;;16.28;100.00;101419.94;5090522;28;20044;-65
2023/09/16 07:15:35;;;;;;;21.70;15.88;;;;;;;16.41;100.00;101416.69;5086803;28;20027;-67
2023/09/16 07:18:00;;;;;;;19.88;15.25;;;;;;;16.54;100.00;101424.91;5087748;28;20032;-65
2023/09/16 07:20:26;;;;;;;21.10;15.88;;;;;;;16.55;100.00;101418.66;5087389;28;20475;-68
2023/09/16 07:22:52;;;;;;;20.95;16.15;;;;;;;16.58;100.00;101423.81;5087582;28;20114;-68
2023/09/16 07:25:18;;;;;;;21.55;15.90;;;;;;;16.69;100.00;101423.28;5089010;28;20107;-67
2023/09/16 07:27:43;;;;;;;20.83;15.75;;;;;;;16.79;100.00;101429.00;5085352;28;20111;-64
2023/09/16 07:30:09;;;;;;;21.02;14.23;;;;;;;16.93;100.00;101423.84;5086276;28;20031;-67
2023/09/16 07:32:36;;;;;;;23.20;17.23;;;;;;;16.98;100.00;101426.25;5087628;28;20036;-68
2023/09/16 07:35:01;;;;;;;21.67;16.55;;;;;;;17.03;100.00;101421.56;5086816;28;20382;-68
2023/09/16 07:37:26;;;;;;;20.75;15.55;;;;;;;17.07;100.00;101424.09;5087881;28;20050;-67
2023/09/16 07:39:54;;;;;;;19.23;14.63;;;;;;;17.21;100.00;101434.00;5088154;28;20020;-67
2023/09/16 07:42:19;;;;;;;24.25;15.05;;;;;;;17.27;100.00;101431.00;5068209;28;20028;-66
2023/09/16 07:44:45;;;;;;;21.52;15.27;;;;;;;17.33;100.00;101420.03;5087198;28;20077;-66
2023/09/16 07:47:10;;;;;;;22.40;16.75;;;;;;;17.43;100.00;101426.59;5086703;28;20020;-66
2023/09/16 07:49:35;;;;;;;18.15;14.88;;;;;;;17.55;100.00;101426.91;5086570;28;20016;-65
2023/09/16 07:52:01;;;;;;;20.65;15.05;;;;;;;17.64;100.00;101429.03;5086669;28;20039;-59
2023/09/16 07:54:26;;;;;;;21.55;14.75;;;;;;;17.78;100.00;101435.41;5086148;28;20070;-65
2023/09/16 07:56:51;;;;;;;20.17;16.02;;;;;;;17.81;100.00;101435.25;5087807;28;20031;-68
2023/09/16 07:59:20;;;;;;;21.20;15.68;;;;;;;17.84;100.00;101440.41;5069428;28;20513;-67
2023/09/16 08:01:45;;;;;;;20.88;15.85;;;;;;;18.01;100.00;101436.81;5073093;28;20031;-63
2023/09/16 08:04:11;;;;;;;20.83;15.63;;;;;;;18.04;100.00;101441.13;5067077;28;20438;-65
2023/09/16 08:06:36;;;;;;;21.40;15.93;;;;;;;18.07;100.00;101435.59;5065328;28;20398;-66
2023/09/16 08:09:01;;;;;;;22.83;15.55;;;;;;;18.24;100.00;101440.00;5048993;28;20498;-68
2023/09/16 08:11:27;;;;;;;20.15;16.10;;;;;;;18.28;100.00;101443.38;5080736;28;20417;-59
2023/09/16 08:13:53;;;;;;;22.35;15.75;;;;;;;18.38;100.00;101446.34;5085885;28;20488;-67
2023/09/16 08:16:18;;;;;;;22.08;16.45;;;;;;;18.50;100.00;101444.78;5087282;28;20058;-68
2023/09/16 08:18:43;;;;;;;24.15;15.23;;;;;;;18.59;100.00;101446.06;5086008;28;20031;-66
2023/09/16 08:21:09;;;;;;;18.35;14.68;;;;;;;18.67;100.00;101450.00;5086285;28;20058;-63
2023/09/16 08:23:34;;;;;;;22.02;15.60;;;;;;;18.81;100.00;101451.00;5087225;28;20501;-67
2023/09/16 08:25:59;;;;;;;17.77;14.60;;;;;;;18.95;100.00;101447.50;5059379;28;20032;-67
2023/09/16 08:28:25;;;;;;;18.65;13.80;;;;;;;19.05;100.00;101453.13;5066613;28;20109;-69
2023/09/16 08:30:50;;;;;;;21.30;14.60;;;;;;;19.14;100.00;101457.97;5066774;28;20044;-63
2023/09/16 08:33:16;;;;;;;16.63;14.23;;;;;;;19.27;100.00;101452.72;5048963;28;20024;-66
2023/09/16 08:35:41;;;;;;;20.00;14.73;;;;;;;19.39;100.00;101456.44;5065835;28;20031;-68
2023/09/16 08:38:08;;;;;;;18.63;15.80;;;;;;;19.36;100.00;101450.47;5047369;28;20225;-68
2023/09/16 08:40:33;;;;;;;18.45;14.00;;;;;;;19.55;100.00;101450.16;5066631;28;20048;-69
2023/09/16 08:43:29;;;;;;;25.52;13.75;;;;;;;19.61;100.00;101441.78;5047675;28;20070;-68
2023/09/16 08:46:02;;;;;;;17.17;14.15;;;;;;;19.75;100.00;101448.91;5084883;28;20051;-64
2023/09/16 08:48:32;;;;;;;17.38;13.70;;;;;;;19.67;100.00;101453.88;5067843;28;20107;-62
2023/09/16 08:50:59;;;;;;;19.35;13.52;;;;;;;19.87;100.00;101457.94;5075306;28;20074;-69
2023/09/16 08:53:25;;;;;;;14.48;12.77;;;;;;;19.94;100.00;101461.97;5067898;28;20027;-67
2023/09/16 08:55:52;;;;;;;17.40;12.80;;;;;;;19.91;100.00;101467.53;5067816;28;20072;-61
2023/09/16 08:58:18;;;;;;;17.67;13.27;;;;;;;20.15;100.00;101464.25;5086588;28;20031;-69
2023/09/16 09:00:44;;;;;;;18.00;12.95;;;;;;;20.31;100.00;101466.78;5068181;28;20052;-65
2023/09/16 09:03:09;;;;;;;16.88;12.02;;;;;;;20.45;100.00;101460.53;5085422;28;20070;-67
2023/09/16 09:05:36;;;;;;;14.93;11.57;;;;;;;20.57;100.00;101469.56;5086108;28;20026;-68
2023/09/16 09:08:02;;;;;;;15.65;11.68;;;;;;;20.83;100.00;101474.13;5084339;28;20469;-66
2023/09/16 09:10:27;;;;;;;14.30;12.30;;;;;;;20.93;100.00;101467.22;5085801;28;20103;-64
2023/09/16 09:12:54;;;;;;;19.48;13.25;;;;;;;20.88;100.00;101471.97;5086094;28;20087;-68
2023/09/16 09:15:19;;;;;;;15.40;12.23;;;;;;;21.10;100.00;101467.84;5085620;28;20024;-66
2023/09/16 09:17:48;;;;;;;16.27;12.13;;;;;;;21.06;100.00;101475.25;5068191;28;20063;-65
2023/09/16 09:20:15;;;;;;;13.90;11.00;;;;;;;21.23;100.00;101475.91;5084397;28;20063;-66
2023/09/16 09:22:40;;;;;;;15.80;12.15;;;;;;;21.23;100.00;101480.41;5066062;28;20021;-68
2023/09/16 09:25:07;;;;;;;16.92;12.93;;;;;;;21.27;100.00;101474.72;5067740;28;20073;-66
2023/09/16 09:27:32;;;;;;;18.20;12.88;;;;;;;21.50;100.00;101476.75;5084962;28;20107;-66
2023/09/16 09:29:57;;;;;;;18.10;11.15;;;;;;;21.69;100.00;101477.19;5086810;28;20107;-67
2023/09/16 09:32:28;;;;;;;14.80;11.93;;;;;;;21.74;100.00;101482.22;5085688;28;20123;-67
2023/09/16 09:34:54;;;;;;;13.90;11.35;;;;;;;21.86;100.00;101483.19;5076380;28;20506;-66
2023/09/16 09:37:20;;;;;;;15.38;10.90;;;;;;;21.90;100.00;101479.31;5056162;28;20024;-64
2023/09/16 09:39:46;;;;;;;19.48;11.98;;;;;;;22.15;100.00;101482.88;5084672;28;20447;-67
2023/09/16 09:42:20;;;;;;;14.63;10.63;;;;;;;22.29;100.00;101478.31;5084070;28;20038;-65
2023/09/16 09:44:46;;;;;;;11.75;10.10;;;;;;;22.37;100.00;101481.31;5084417;28;20378;-67
2023/09/16 09:47:15;;;;;;;13.02;9.13;;;;;;;22.62;100.00;101486.69;5085079;28;20028;-67
2023/09/16 09:49:41;;;;;;;13.43;10.82;;;;;;;22.55;100.00;101483.59;5067225;28;20030;-67
2023/09/16 09:52:06;;;;;;;12.00;10.73;;;;;;;22.39;100.00;101490.09;5085147;28;20107;-67
2023/09/16 09:54:32;;;;;;;14.77;10.95;;;;;;;22.30;100.00;101485.41;5084938;28;20073;-64
2023/09/16 09:56:57;;;;;;;13.18;10.95;;;;;;;22.40;100.00;101489.13;5067539;28;20020;-62
2023/09/16 09:59:23;;;;;;;13.95;10.35;;;;;;;22.59;100.00;101485.97;5085749;28;20035;-65
2023/09/16 10:01:48;;;;;;;13.32;9.02;;;;;;;22.76;98.79;101485.66;5066913;28;20042;-67
2023/09/16 10:04:14;;;;;;;14.13;9.70;;;;;;;22.85;96.09;101493.84;5067518;28;20020;-69
2023/09/16 10:06:39;;;;;;;10.35;8.77;;;;;;;22.80;98.08;101495.19;5066545;28;20103;-66
2023/09/16 10:09:05;;;;;;;14.30;10.30;;;;;;;22.36;100.00;101500.22;5085305;28;20016;-67
2023/09/16 10:11:32;;;;;;;14.77;9.50;;;;;;;22.32;100.00;101495.06;5085604;28;20047;-69
2023/09/16 10:13:59;;;;;;;17.33;10.40;;;;;;;22.32;100.00;101494.22;5084672;28;20039;-66
2023/09/16 10:16:24;;;;;;;13.43;9.75;;;;;;;22.03;100.00;101489.16;5085154;28;20056;-68
2023/09/16 10:18:50;;;;;;;11.57;9.48;;;;;;;22.16;100.00;101492.66;5067316;28;20062;-66
2023/09/16 10:21:15;;;;;;;11.25;8.95;;;;;;;22.31;100.00;101482.59;5070174;28;20020;-65
2023/09/16 10:23:41;;;;;;;15.85;9.45;;;;;;;22.40;100.00;101485.59;5089403;28;20031;-67
2023/09/16 10:26:08;;;;;;;14.13;9.80;;;;;;;22.40;100.00;101481.09;5088218;28;20104;-67
2023/09/16 10:28:42;;;;;;;12.73;9.38;;;;;;;22.58;99.89;101472.66;5088368;28;20462;-67
2023/09/16 10:31:08;;;;;;;10.57;8.10;;;;;;;22.71;98.96;101473.44;5088767;28;20028;-65
2023/09/16 10:33:34;;;;;;;14.55;10.00;;;;;;;22.63;99.50;101470.47;5070560;28;20024;-64
2023/09/16 10:35:59;;;;;;;13.10;9.70;;;;;;;22.39;100.00;101468.63;5068989;28;20027;-67
2023/09/16 10:38:25;;;;;;;13.27;10.45;;;;;;;22.47;100.00;101466.22;5088238;28;20060;-68
2023/09/16 10:40:50;;;;;;;11.48;9.75;;;;;;;22.58;100.00;101461.91;5070379;28;20024;-66
2023/09/16 10:43:16;;;;;;;16.02;9.73;;;;;;;22.88;100.00;101468.59;5069355;28;20359;-67
2023/09/16 10:45:41;;;;;;;13.43;9.05;;;;;;;23.05;97.85;101463.72;5069674;28;20024;-68
2023/09/16 10:48:06;;;;;;;13.38;10.32;;;;;;;23.30;96.88;101459.16;5085999;28;20073;-69
2023/09/16 10:50:37;;;;;;;14.55;10.60;;;;;;;23.20;96.76;101467.06;5049516;28;20052;-67
2023/09/16 10:53:11;;;;;;;11.60;10.18;;;;;;;23.55;98.94;101459.91;5067793;28;20036;-62
2023/09/16 10:55:43;;;;;;;13.00;9.18;;;;;;;23.79;96.00;101457.09;5049714;28;20138;-68
2023/09/16 10:58:33;;;;;;;12.75;9.40;;;;;;;24.07;91.32;101459.34;5066210;28;20036;-66